x

Luke Offshore Test Platform - 64 Nm South Of Dauphin Island, Al (42040) Wave Buoy

2:50am - Sun 28th Dec 2014 All times are CST. -6 hours from GMT.

  • Sig Wave height 4.3ft
  • Swell Direction
  • Peak Period 7s
  • Average Period 5s
  • Wind
    16mph, 18mph gusts
  • Sea Temp 74°f
  • Air Temp 73°f
  • Sea Pressure 1018mb
  • Luke Offshore Test Platform - 64 Nm South Of Dauphin Island, Al
  • Luke Offshore Test Platform - 64 Nm South Of Dauphin Island, Al

More Historic Weather Station data

Upgrade to MSW Pro to gain access to the past 30 days of data for over 8000 Wavebouys and Weather Stations around the globe.

Join Pro

Comparision Forecast

View Surf forecast
   
Sun 12/28 2:50am 4.5ft 7s 5s 16 18 mph 1018mb 74f 73f
1:50am 4.5ft 8s 5s 16 20 mph 1018mb 74f 73f
12:50am 4.5ft 7s 5s 18 22 mph 1018mb 74f 73f
Sat 12/27 11:50pm 4.5ft 7s 5s 20 22 mph 1018.2mb 74f 73f
10:50pm 4.5ft 7s 5s 18 22 mph 1018.8mb 74f 74f
9:50pm 4.5ft 6s 5s 18 20 mph 1019.1mb 74f 74f
8:50pm 4.5ft 8s 5s 16 18 mph 1019.7mb 74f 74f
7:50pm 5ft 7s 5s 13 18 mph 1019.6mb 74f 73f
6:50pm 5ft 6s 5s 20 22 mph 1019.4mb 74f 74f
5:50pm 4.5ft 6s 5s 20 22 mph 1018.9mb 74f 74f
4:50pm 5ft 6s 5s 20 25 mph 1018.5mb 74f 74f
3:50pm 5ft 6s 5s 22 25 mph 1018.3mb 74f 74f
2:50pm 5ft 6s 5s 20 25 mph 1018.5mb 74f 73f
1:50pm 5.5ft 7s 5s 22 25 mph 1018.7mb 74f 73f
12:50pm 6ft 6s 5s 20 27 mph 1019.4mb 74f 73f
11:50am 6ft 6s 5s 25 29 mph 1020.2mb 74f 73f
10:50am 5ft 7s 5s 27 29 mph 1021mb 74f 72f
9:50am 5.5ft 6s 5s 25 29 mph 1021.5mb 73f 72f
8:50am 5ft 6s 5s 25 29 mph 1021.7mb 74f 72f
7:50am 5ft 6s 5s 22 25 mph 1021.6mb 74f 71f
6:50am 5.5ft 6s 5s 20 25 mph 1021.2mb 74f 71f
5:50am 5.5ft 6s 5s 25 29 mph 1020.3mb 74f 71f
4:50am 5ft 6s 5s 22 27 mph 1020mb 74f 70f
3:50am 5ft 6s 5s 25 27 mph 1019.9mb 74f 70f
2:50am 5ft 6s 5s 25 29 mph 1019.9mb 74f 70f
1:50am 5ft 6s 5s 25 29 mph 1020mb 74f 70f
12:50am 6ft 5s 5s 25 29 mph 1020.1mb 74f 70f
Fri 12/26 11:50pm 5ft 5s 5s 25 29 mph 1020.1mb 74f 70f
10:50pm 4.5ft 5s 4s 27 31 mph 1020.7mb 74f 70f
9:50pm 3.5ft 4s 4s 25 29 mph 1021.5mb 74f 70f
8:50pm 3ft 4s 4s 22 27 mph 1021.6mb 74f 70f
7:50pm 2.5ft 4s 4s 20 22 mph 1021.7mb 74f 69f
6:50pm 2.5ft 4s 4s 20 22 mph 1021.6mb 74f 69f
5:50pm 2ft 4s 4s 18 22 mph 1021.3mb 74f 68f
4:50pm 1.6ft 4s 4s 16 20 mph 1021.1mb 74f 68f
3:50pm 2ft 4s 4s 16 18 mph 1020.9mb 74f 67f
2:50pm 2ft 4s 4s 13 16 mph 1021.1mb 74f 67f
1:50pm 2ft 4s 4s 11 13 mph 1021.4mb 74f 67f
12:50pm 2ft 4s 4s 11
mph
1021.4mb 74f 66f
11:50am 2ft 4s 4s 9 11 mph 1022.4mb 74f 67f
10:50am 2ft 4s 4s 7 9 mph 1023.5mb 73f 66f
9:50am 2.5ft 4s 4s 9 11 mph 1023.4mb 73f 66f
8:50am 2.5ft 4s 4s 13 16 mph 1023.4mb 73f 65f
7:50am 2.5ft 4s 4s 13 18 mph 1022.5mb 73f 65f
6:50am 2.5ft 4s 4s 16 18 mph 1021.6mb 73f 64f
5:50am 2.5ft 4s 4s 16 20 mph 1021.1mb 73f 63f
4:50am 2.5ft 4s 4s 18 22 mph 1021.1mb 73f 63f
3:50am 2.5ft 4s 4s 16 20 mph 1021.1mb 73f 62f
2:50am 2.5ft 4s 4s 13 18 mph 1021.4mb 73f 62f
1:50am 2.5ft 4s 4s 16 20 mph 1022.1mb 73f 62f
12:50am 2.5ft 3s 4s 16 22 mph 1022.3mb 74f 61f
Thu 12/25 11:50pm 2.5ft 7s 4s 18 20 mph 1022.1mb 74f 60f
10:50pm 2ft 7s 4s 13 20 mph 1022.8mb 73f 60f
9:50pm 2ft 8s 5s 13 20 mph 1022.9mb 73f 59f
8:50pm 2ft 8s 6s 13 16 mph 1022.9mb 73f 58f
7:50pm 2ft 8s 6s 7 11 mph 1023.6mb 73f 57f
6:50pm 2.5ft 7s 6s 4 9 mph 1023.6mb 73f 56f
5:50pm 2.5ft 8s 6s 7 9 mph 1023.5mb 73f 56f
4:50pm 2.5ft 8s 6s 7 11 mph 1023.3mb 73f 56f
3:50pm 2.5ft 8s 6s 4 9 mph 1023.2mb 73f 56f
2:50pm 2.5ft 8s 6s 7 9 mph 1023.5mb 73f 55f
1:50pm 2.5ft 8s 5s 7 11 mph 1023.2mb 73f 55f
12:50pm 2.5ft 8s 5s 4 9 mph 1023mb 73f 54f
11:50am 3ft 8s 5s 4 9 mph 1023.4mb 73f 54f
10:50am 3.5ft 8s 5s 9 13 mph 1024.4mb 73f 53f
9:50am 3.5ft 8s 5s 9 13 mph 1025.2mb 73f 53f
8:50am 4ft 8s 5s 11 18 mph 1024.9mb 73f 53f
7:50am 4ft 8s 5s 13 18 mph 1023.9mb 73f 53f
6:50am 4ft 8s 5s 11 16 mph 1022.8mb 72f 53f
5:50am 4.5ft 8s 5s 13 18 mph 1022.1mb 72f 53f
4:50am 5ft 8s 5s 13 20 mph 1021.3mb 72f 53f
3:50am  -   -   -  13
mph
1020.8mb 72f 53f
2:50am 6ft 8s 6s 18 22 mph 1021.1mb 72f 53f
1:50am 6ft 8s 6s 20 25 mph 1020.1mb 72f 53f
12:50am 6.5ft 6s 5s 20 27 mph 1019.5mb 72f 53f
Wed 12/24 11:50pm 6.5ft 8s 5s 22 29 mph 1019.3mb 72f 53f
10:50pm 6ft 9s 5s 22 27 mph 1018.5mb 72f 55f
9:50pm 6ft 8s 5s 22 29 mph 1018.1mb 71f 56f
8:50pm  -   -   -  22 29 mph 1017.1mb 71f 57f
7:50pm 6ft 9s 5s 22 31 mph 1016mb 71f 57f
6:50pm 6ft 8s 5s 25 29 mph 1015.3mb 72f 58f
5:50pm 6ft 9s 6s 20 27 mph 1014.1mb 72f 57f
4:50pm 7ft 9s 6s 22 29 mph 1013.2mb 72f 58f
3:50pm 7.5ft  -  6s 22 27 mph 1012.5mb 72f 57f
2:50pm 8ft 9s 6s 22 29 mph 1012.7mb 72f 58f
1:50pm 8.5ft 9s 6s 20 25 mph 1012.2mb 72f 57f
12:50pm 8.5ft 10s 6s 22 29 mph 1011.8mb 72f 58f
11:50am 10ft 10s 6s 27 31 mph 1012mb 72f 58f
10:50am 10ft 10s 6s 27 31 mph 1011.7mb 72f 57f